Airfield :
LOGIN :

Register | Disclaimer

   EN    FR    IT 

 










Legend :    VFR   Marginal VFR   IFR   Intensive IFR   Very Intensive IFR
Visi :
Ceiling :
>= 8 km
>= 3000ft
5 to 8 km
1000 to 3000 ft
1500m to 5 km
500 to 1000 ft
800 to 1500m
200 to 500 ft
< 800m
< 200 ft
Symbols :   Thunderstorms  Fog  Heavy snow  Heavy precipitations  Wind > 20 kt
SIGMETs :     Misc.  Thunderstorms  Icing  Turbulence  Mountain Waves  Volcanic Ashes







- Airport Elevation : 257 ft
- IATA code : MAN
- Download approach charts


EGCC - Manchester

CURRENT METAR :
  • 200020Z AUTO 16004KT 9999 NCD 10/07 Q1009

EXPIRED METARs :
  • 192350Z AUTO 16004KT 9999 NCD 09/07 Q1009
  • 192320Z AUTO VRB03KT 9999 NCD 10/08 Q1009
  • 192250Z AUTO 25002KT 9999 NCD 11/07 Q1009
  • 192220Z AUTO 28002KT 9999 FEW042 13/07 Q1009
  • 192150Z AUTO 28003KT 9999 SCT044 13/07 Q1009

TAF TAF EGCC
Valid from the 20 at 00:00 until the 21 at 06:00 UTC


192257Z 2000/2106 VRB03KT 9999 FEW040
PROB30
TEMPO 2004/2009 4000 RADZ BKN012
BECMG 2006/2009 30010KT
PROB40
TEMPO 2009/2020 7000 SHRA
BECMG 2018/2021 VRB04KT
ATIS : +44 161 499 2324
No reported NOTAMs for that airfield.



MET'MAP, your aeronautical weather chart ! - Copyright ORBIFLY December 2007 - Disclaimer

ORBIFLY MET'MAP TEAM :

Programming & Development : Alexandra Zaïnal
Concept & Development : Baudouin d'Aumeries
Co-Development & Prog : Marc-Olivier Méhu
Technical & hardware support : Manuel Goepfert

Contact : metmap@orbifly.com




SOURCES & CREDITS :

   NOAA